Time;durP1;ratioP1;P1;durP2;ratioP2;P2;SDS_P1;SDS_P2;PMS_P1;PMS_P2;Temp;Humidity;BMP_temperature;BMP_pressure;BME280_temperature;BME280_humidity;BME280_pressure;Samples;Min_cycle;Max_cycle;Signal;HPM_P1;HPM_P2
2021/06/14 00:01:00;;;;;;;5.53;3.75;;;21.70;45.40;;;;;;4935488;29;20208;-83
2021/06/14 00:03:30;;;;;;;4.25;3.80;;;21.70;44.90;;;;;;4949932;29;20245;-83
2021/06/14 00:06:01;;;;;;;4.07;3.55;;;21.70;44.80;;;;;;4950549;29;20193;-83
2021/06/14 00:08:29;;;;;;;5.25;3.83;;;21.70;44.90;;;;;;4934649;29;20185;-83
2021/06/14 00:10:57;;;;;;;4.32;3.50;;;21.70;44.80;;;;;;4934243;29;20185;-83
2021/06/14 00:13:26;;;;;;;4.78;3.53;;;21.70;44.90;;;;;;4934687;29;20185;-83
2021/06/14 00:15:56;;;;;;;5.63;3.88;;;21.70;44.90;;;;;;4934605;29;20182;-83
2021/06/14 00:18:26;;;;;;;5.70;3.85;;;21.70;44.80;;;;;;4934995;29;20189;-83
2021/06/14 00:20:55;;;;;;;5.28;3.83;;;21.70;44.90;;;;;;4935107;29;20214;-83
2021/06/14 00:23:27;;;;;;;6.22;3.83;;;21.70;45.70;;;;;;4950738;29;20545;-83
2021/06/14 00:25:54;;;;;;;4.50;3.80;;;21.70;44.90;;;;;;4950420;29;20237;-83
2021/06/14 00:28:25;;;;;;;4.20;3.53;;;21.70;44.80;;;;;;4949758;29;20186;-83
2021/06/14 00:30:56;;;;;;;5.03;3.80;;;21.70;44.90;;;;;;4934281;29;20190;-83
2021/06/14 00:33:24;;;;;;;5.30;4.30;;;21.70;45.50;;;;;;4949768;29;20186;-83
2021/06/14 00:35:55;;;;;;;4.72;3.90;;;21.70;44.90;;;;;;4933400;29;20182;-83
2021/06/14 00:38:27;;;;;;;5.00;3.65;;;21.70;45.00;;;;;;4918089;29;20210;-83
2021/06/14 00:40:55;;;;;;;5.45;3.80;;;21.70;44.90;;;;;;4917609;29;20213;-83
2021/06/14 00:43:25;;;;;;;5.35;3.72;;;21.70;44.90;;;;;;4933918;29;20190;-82
2021/06/14 00:45:53;;;;;;;4.35;3.60;;;21.70;45.00;;;;;;4933716;29;20210;-83
2021/06/14 00:48:23;;;;;;;5.50;3.88;;;21.70;45.10;;;;;;4950060;29;20178;-83
2021/06/14 00:50:54;;;;;;;4.82;3.70;;;21.70;45.10;;;;;;4918150;29;20186;-83
2021/06/14 00:53:34;;;;;;;4.47;3.78;;;21.70;45.10;;;;;;4918160;29;20182;-83
2021/06/14 00:56:04;;;;;;;5.18;4.15;;;21.70;45.10;;;;;;4950256;29;20177;-83
2021/06/14 00:58:37;;;;;;;4.53;3.90;;;21.70;45.10;;;;;;4932682;29;20664;-83
2021/06/14 01:01:07;;;;;;;4.40;3.70;;;21.70;45.00;;;;;;4949689;29;20623;-83
2021/06/14 01:03:35;;;;;;;4.78;3.72;;;21.70;45.10;;;;;;4933339;29;20186;-83
2021/06/14 01:06:04;;;;;;;5.47;4.30;;;21.70;44.90;;;;;;4933603;29;20190;-83
2021/06/14 01:08:37;;;;;;;5.63;3.80;;;21.70;45.10;;;;;;4949181;29;20189;-83
2021/06/14 01:11:11;;;;;;;4.72;3.80;;;21.70;45.10;;;;;;4949436;29;20182;-83
2021/06/14 01:13:49;;;;;;;4.05;3.47;;;21.70;45.10;;;;;;4935354;29;20182;-83
2021/06/14 01:16:26;;;;;;;4.18;3.50;;;21.80;45.20;;;;;;4932320;29;20177;-83
2021/06/14 01:19:13;;;;;;;4.63;3.97;;;21.60;45.10;;;;;;4919570;29;20212;-83
2021/06/14 01:21:54;;;;;;;4.47;3.67;;;21.70;45.10;;;;;;4934612;29;20192;-83
2021/06/14 01:24:53;;;;;;;4.82;3.78;;;21.70;45.30;;;;;;4934236;29;20214;-83
2021/06/14 01:27:40;;;;;;;5.40;3.90;;;21.70;45.10;;;;;;4949568;29;20169;-83
2021/06/14 01:30:14;;;;;;;4.88;3.83;;;21.60;45.10;;;;;;4949069;29;20184;-83
2021/06/14 01:32:43;;;;;;;4.30;3.70;;;21.70;45.30;;;;;;4917225;29;20186;-83
2021/06/14 01:35:24;;;;;;;5.22;3.58;;;21.70;45.30;;;;;;4951162;29;20160;-83
2021/06/14 01:37:53;;;;;;;4.40;3.75;;;21.70;45.30;;;;;;4933664;29;20212;-83
2021/06/14 01:40:19;;;;;;;4.65;3.45;;;21.70;45.30;;;;;;4949050;29;20186;-83
2021/06/14 01:42:51;;;;;;;5.18;3.70;;;21.70;45.20;;;;;;4949159;29;20246;-83
2021/06/14 01:45:21;;;;;;;4.18;3.70;;;21.70;45.30;;;;;;4933140;29;20181;-83
2021/06/14 01:47:47;;;;;;;4.57;3.42;;;21.70;45.90;;;;;;4948279;29;20213;-83
2021/06/14 01:50:14;;;;;;;4.93;3.50;;;21.70;45.30;;;;;;4949510;29;20165;-83
2021/06/14 01:52:40;;;;;;;4.32;3.75;;;21.70;45.30;;;;;;4948564;29;20201;-83
2021/06/14 01:55:13;;;;;;;4.85;3.55;;;21.60;45.20;;;;;;4933378;29;20241;-83
2021/06/14 01:57:39;;;;;;;5.03;3.90;;;21.70;45.20;;;;;;4948025;29;20207;-83
2021/06/14 02:00:07;;;;;;;4.18;3.67;;;21.70;45.40;;;;;;4948350;29;20214;-83
2021/06/14 02:02:37;;;;;;;4.65;3.80;;;21.70;45.40;;;;;;4948501;29;20174;-83
2021/06/14 02:05:05;;;;;;;5.35;3.53;;;21.70;45.40;;;;;;4947238;29;20209;-83
2021/06/14 02:07:31;;;;;;;5.15;3.90;;;21.70;45.40;;;;;;4948337;29;20254;-83
2021/06/14 02:09:58;;;;;;;4.85;3.80;;;21.70;45.40;;;;;;4932866;29;20178;-83
2021/06/14 02:12:25;;;;;;;5.93;4.05;;;21.70;45.40;;;;;;4948132;29;20217;-83
2021/06/14 02:14:52;;;;;;;5.22;4.05;;;21.70;45.40;;;;;;4948424;29;20732;-83
2021/06/14 02:17:21;;;;;;;5.43;3.97;;;21.60;45.30;;;;;;4948529;29;20197;-83
2021/06/14 02:19:48;;;;;;;4.65;3.60;;;21.60;45.40;;;;;;4952165;29;20193;-83
2021/06/14 02:22:18;;;;;;;5.38;3.60;;;21.70;45.50;;;;;;4952655;29;20200;-83
2021/06/14 02:24:44;;;;;;;4.75;3.67;;;21.70;45.50;;;;;;4936328;29;20241;-83
2021/06/14 02:27:18;;;;;;;4.68;4.07;;;21.70;45.50;;;;;;4953592;29;20659;-83
2021/06/14 02:29:48;;;;;;;5.35;3.95;;;21.60;45.50;;;;;;4936457;29;20185;-83
2021/06/14 02:32:19;;;;;;;5.30;4.03;;;21.70;45.50;;;;;;4937015;29;20217;-82
2021/06/14 02:34:49;;;;;;;3.97;3.58;;;21.70;45.50;;;;;;4937151;29;20274;-83
2021/06/14 02:37:20;;;;;;;4.00;3.42;;;21.70;45.50;;;;;;4937102;29;20729;-82
2021/06/14 02:39:48;;;;;;;5.05;3.88;;;21.70;45.50;;;;;;4953388;29;20576;-83
2021/06/14 02:42:15;;;;;;;4.30;3.83;;;21.70;45.60;;;;;;4953935;29;20151;-82
2021/06/14 02:44:45;;;;;;;5.22;3.90;;;21.70;45.60;;;;;;4953787;29;20178;-82
2021/06/14 02:47:17;;;;;;;8.55;4.20;;;21.70;45.60;;;;;;4937944;29;20190;-82
2021/06/14 02:49:46;;;;;;;4.88;3.80;;;21.70;45.60;;;;;;4936765;29;20196;-82
2021/06/14 02:52:14;;;;;;;4.50;3.75;;;21.70;45.70;;;;;;4937350;29;20190;-82
2021/06/14 02:54:55;;;;;;;5.57;3.67;;;21.70;45.70;;;;;;4953313;29;20174;-83
2021/06/14 02:57:27;;;;;;;4.97;3.80;;;21.70;45.70;;;;;;4937290;29;20257;-82
2021/06/14 02:59:54;;;;;;;5.78;3.70;;;21.70;46.30;;;;;;4936975;29;20237;-83
2021/06/14 03:02:23;;;;;;;4.25;3.67;;;21.70;45.60;;;;;;4969595;29;20229;-82
2021/06/14 03:04:50;;;;;;;4.72;3.67;;;21.70;45.70;;;;;;4937268;29;20202;-82
2021/06/14 03:07:19;;;;;;;5.13;4.03;;;21.70;45.60;;;;;;4937624;29;20166;-82
2021/06/14 03:09:46;;;;;;;4.65;3.80;;;21.70;45.60;;;;;;4953226;29;20186;-82
2021/06/14 03:12:15;;;;;;;5.47;3.50;;;21.70;45.60;;;;;;4953280;29;20219;-82
2021/06/14 03:14:51;;;;;;;4.13;3.70;;;21.70;45.50;;;;;;4937880;29;20185;-82
2021/06/14 03:17:16;;;;;;;4.95;3.40;;;21.80;45.70;;;;;;4937925;29;20185;-83
2021/06/14 03:19:42;;;;;;;4.22;3.75;;;21.70;45.60;;;;;;4937193;29;20301;-82
2021/06/14 03:22:13;;;;;;;5.07;4.03;;;21.70;45.60;;;;;;4937506;29;20166;-82
2021/06/14 03:24:39;;;;;;;4.70;3.60;;;21.70;45.70;;;;;;4936147;29;20241;-83
2021/06/14 03:27:10;;;;;;;4.50;3.78;;;21.70;45.80;;;;;;4953938;29;20194;-82
2021/06/14 03:29:43;;;;;;;4.95;3.83;;;21.70;45.70;;;;;;4937166;29;20210;-82
2021/06/14 03:32:15;;;;;;;5.47;4.00;;;21.70;45.60;;;;;;4921524;29;20205;-82
2021/06/14 03:34:42;;;;;;;4.50;3.78;;;21.70;45.80;;;;;;4953186;29;20194;-83
2021/06/14 03:37:13;;;;;;;4.55;4.03;;;21.70;45.80;;;;;;4937075;29;20669;-82
2021/06/14 03:39:42;;;;;;;4.93;3.90;;;21.60;45.80;;;;;;4936523;29;20233;-83
2021/06/14 03:42:16;;;;;;;6.03;3.72;;;21.70;45.80;;;;;;4952503;29;20190;-82
2021/06/14 03:44:48;;;;;;;4.82;3.83;;;21.70;45.80;;;;;;4939403;29;20190;-82
2021/06/14 03:47:16;;;;;;;5.75;4.18;;;21.70;45.80;;;;;;4937525;29;20182;-82
2021/06/14 03:49:46;;;;;;;5.13;3.75;;;21.70;45.90;;;;;;4937681;29;20193;-82
2021/06/14 03:52:16;;;;;;;4.45;3.63;;;21.70;45.80;;;;;;4938391;29;20192;-82
2021/06/14 03:54:43;;;;;;;4.07;3.67;;;21.70;45.70;;;;;;4953588;29;20208;-82
2021/06/14 03:57:12;;;;;;;4.93;3.60;;;21.70;45.90;;;;;;4938527;29;20178;-82
2021/06/14 03:59:46;;;;;;;5.00;3.88;;;21.70;45.80;;;;;;4938028;29;20221;-82
2021/06/14 04:02:15;;;;;;;4.72;3.60;;;21.70;45.80;;;;;;4953962;29;20200;-82
2021/06/14 04:04:49;;;;;;;5.20;3.90;;;21.70;46.00;;;;;;4922100;29;20190;-82
2021/06/14 04:07:16;;;;;;;4.57;3.42;;;21.70;45.80;;;;;;4939322;29;20169;-82
2021/06/14 04:09:43;;;;;;;4.03;3.63;;;21.70;45.90;;;;;;4954960;29;20162;-82
2021/06/14 04:12:12;;;;;;;5.38;3.78;;;21.70;45.90;;;;;;4953963;29;20205;-82
2021/06/14 04:14:43;;;;;;;5.97;3.80;;;21.70;45.90;;;;;;4954040;29;20210;-82
2021/06/14 04:17:13;;;;;;;4.60;3.58;;;21.90;46.00;;;;;;4953459;29;20241;-82
2021/06/14 04:19:41;;;;;;;4.63;3.72;;;21.80;46.00;;;;;;4919686;29;20209;-83
2021/06/14 04:22:09;;;;;;;4.78;3.67;;;21.80;46.00;;;;;;4935972;29;20186;-83
2021/06/14 04:24:35;;;;;;;3.83;3.40;;;21.70;46.20;;;;;;4934544;29;20578;-83
2021/06/14 04:27:06;;;;;;;4.20;3.53;;;21.80;46.20;;;;;;4952486;29;20170;-83
2021/06/14 04:29:36;;;;;;;3.80;3.22;;;21.80;46.30;;;;;;4934829;29;20200;-83
2021/06/14 04:32:06;;;;;;;4.60;3.88;;;21.80;46.20;;;;;;4935116;29;20198;-82
2021/06/14 04:34:33;;;;;;;6.38;3.75;;;21.80;46.30;;;;;;4951275;29;20190;-82
2021/06/14 04:37:04;;;;;;;5.35;3.97;;;21.80;46.30;;;;;;4934588;29;20212;-82
2021/06/14 04:39:31;;;;;;;5.65;3.65;;;21.80;46.00;;;;;;4935549;29;20311;-82
2021/06/14 04:42:01;;;;;;;3.30;3.00;;;21.80;46.30;;;;;;4950078;29;20186;-83
2021/06/14 04:44:28;;;;;;;5.30;3.55;;;21.80;46.20;;;;;;4951277;29;20182;-82
2021/06/14 04:47:01;;;;;;;4.13;3.28;;;21.90;46.10;;;;;;4951185;29;20250;-82
2021/06/14 04:49:28;;;;;;;4.35;3.60;;;21.90;46.10;;;;;;4951373;29;20216;-82
2021/06/14 04:51:55;;;;;;;4.55;3.45;;;21.90;46.20;;;;;;4920028;29;20196;-82
2021/06/14 04:54:23;;;;;;;4.15;3.53;;;21.90;46.10;;;;;;4935589;29;20640;-82
2021/06/14 04:56:55;;;;;;;3.92;3.50;;;21.90;46.30;;;;;;4951048;29;20193;-82
2021/06/14 04:59:24;;;;;;;4.22;3.45;;;21.90;46.20;;;;;;4951060;29;20213;-82
2021/06/14 05:01:53;;;;;;;4.10;3.55;;;21.90;46.10;;;;;;4950554;29;20189;-82
2021/06/14 05:04:24;;;;;;;4.63;3.70;;;21.80;46.20;;;;;;4935303;29;20207;-83
2021/06/14 05:06:53;;;;;;;4.10;3.20;;;21.90;46.30;;;;;;4903406;29;20329;-82
2021/06/14 05:09:24;;;;;;;4.03;3.33;;;21.80;46.20;;;;;;4950782;29;20249;-82
2021/06/14 05:11:50;;;;;;;4.72;3.67;;;21.90;46.30;;;;;;4930470;29;20252;-82
2021/06/14 05:14:18;;;;;;;4.53;3.25;;;21.90;46.20;;;;;;4954931;29;20560;-82
2021/06/14 05:16:50;;;;;;;4.65;3.80;;;21.90;46.10;;;;;;4936979;29;20194;-82
2021/06/14 05:19:23;;;;;;;4.60;3.50;;;21.90;46.30;;;;;;4922229;29;20205;-82
2021/06/14 05:21:49;;;;;;;4.82;3.70;;;21.90;46.40;;;;;;4939763;29;20190;-83
2021/06/14 05:24:14;;;;;;;4.72;3.80;;;21.90;46.00;;;;;;4954115;29;20168;-82
2021/06/14 05:26:41;;;;;;;4.80;3.40;;;21.90;46.30;;;;;;4970569;29;20162;-82
2021/06/14 05:29:10;;;;;;;4.53;3.60;;;21.90;46.20;;;;;;4954266;29;20200;-83
2021/06/14 05:31:36;;;;;;;3.85;3.42;;;21.90;46.40;;;;;;4921335;29;20200;-82
2021/06/14 05:34:03;;;;;;;4.80;3.50;;;22.00;46.30;;;;;;4953881;29;20177;-83
2021/06/14 05:36:34;;;;;;;4.15;3.47;;;21.90;46.20;;;;;;4954015;29;20185;-83
2021/06/14 05:39:04;;;;;;;4.00;3.33;;;22.00;46.30;;;;;;4934722;29;20276;-81
2021/06/14 05:41:35;;;;;;;5.18;3.40;;;21.90;46.30;;;;;;4968670;29;20229;-81
2021/06/14 05:44:03;;;;;;;4.72;3.58;;;21.90;47.00;;;;;;4920046;29;20276;-81
2021/06/14 05:46:33;;;;;;;4.18;3.28;;;21.90;46.40;;;;;;4936542;29;20189;-81
2021/06/14 05:49:06;;;;;;;4.30;3.47;;;21.90;46.50;;;;;;4936135;29;20192;-81
2021/06/14 05:51:34;;;;;;;5.25;3.30;;;22.00;46.50;;;;;;4952375;29;20248;-82
2021/06/14 05:54:01;;;;;;;5.38;3.55;;;22.00;46.60;;;;;;4972291;28;20169;-81
2021/06/14 05:56:28;;;;;;;4.82;3.65;;;21.90;47.30;;;;;;4923494;29;20189;-81
2021/06/14 05:59:02;;;;;;;6.00;3.72;;;22.00;46.70;;;;;;4971752;29;20221;-81
2021/06/14 06:01:30;;;;;;;5.38;3.60;;;22.00;47.00;;;;;;4940036;29;20181;-81
2021/06/14 06:04:01;;;;;;;4.45;3.65;;;21.90;47.20;;;;;;4954382;29;20246;-81
2021/06/14 06:06:28;;;;;;;4.28;3.60;;;21.90;47.50;;;;;;4938271;29;20257;-82
2021/06/14 06:08:58;;;;;;;4.50;3.60;;;21.90;47.00;;;;;;4954783;29;20216;-82
2021/06/14 06:11:25;;;;;;;4.80;3.55;;;21.90;46.70;;;;;;4987418;28;20177;-82
2021/06/14 06:13:54;;;;;;;4.03;3.20;;;21.80;47.20;;;;;;4967870;29;20172;-80
2021/06/14 06:16:23;;;;;;;4.15;3.28;;;21.90;47.40;;;;;;4926263;29;20189;-80
2021/06/14 06:18:53;;;;;;;4.97;3.22;;;21.90;47.40;;;;;;4941024;29;20216;-79
2021/06/14 06:21:18;;;;;;;4.63;3.33;;;22.00;47.30;;;;;;4940940;29;20189;-81
2021/06/14 06:23:47;;;;;;;4.22;3.40;;;22.00;47.00;;;;;;4958769;29;20216;-79
2021/06/14 06:26:12;;;;;;;5.90;3.70;;;22.00;47.40;;;;;;4940464;29;20227;-80
2021/06/14 06:28:41;;;;;;;5.80;3.63;;;22.10;48.30;;;;;;4957583;29;20618;-79
2021/06/14 06:31:09;;;;;;;4.03;3.33;;;22.10;47.10;;;;;;4940732;29;20181;-80
2021/06/14 06:33:36;;;;;;;6.03;3.88;;;22.00;47.70;;;;;;4942979;29;20193;-79
2021/06/14 06:36:04;;;;;;;4.78;3.40;;;21.90;49.40;;;;;;4960175;29;20156;-82
2021/06/14 06:38:33;;;;;;;5.00;3.78;;;21.80;49.30;;;;;;4941751;29;20189;-81
2021/06/14 06:41:02;;;;;;;5.78;3.50;;;21.70;50.40;;;;;;4924807;29;20184;-81
2021/06/14 06:43:30;;;;;;;6.90;3.75;;;21.70;47.70;;;;;;4941185;29;20200;-83
2021/06/14 06:45:59;;;;;;;6.60;3.58;;;21.70;49.50;;;;;;4926268;29;20185;-83
2021/06/14 06:48:29;;;;;;;6.25;3.63;;;21.80;48.90;;;;;;4941249;29;20205;-82
2021/06/14 06:51:00;;;;;;;4.75;3.45;;;21.80;50.20;;;;;;4929537;29;20181;-85
2021/06/14 06:53:26;;;;;;;7.40;3.92;;;21.80;47.90;;;;;;4945784;29;20623;-83
2021/06/14 06:55:52;;;;;;;4.72;3.72;;;21.80;48.50;;;;;;4957380;29;20172;-80
2021/06/14 06:58:17;;;;;;;6.05;4.05;;;21.80;48.50;;;;;;4973310;28;20166;-79
2021/06/14 07:00:48;;;;;;;5.45;3.70;;;21.80;49.10;;;;;;4956819;28;20284;-79
2021/06/14 07:03:16;;;;;;;5.82;4.05;;;21.80;49.20;;;;;;4940695;28;20699;-79
2021/06/14 07:05:44;;;;;;;6.90;4.05;;;21.80;49.20;;;;;;4939966;29;20193;-80
2021/06/14 07:08:11;;;;;;;8.35;4.18;;;21.80;49.50;;;;;;4940139;29;20181;-79
2021/06/14 07:10:38;;;;;;;6.28;4.40;;;21.80;49.80;;;;;;4940063;29;20265;-80
2021/06/14 07:13:06;;;;;;;4.65;3.75;;;21.70;50.40;;;;;;4940097;29;20181;-80
2021/06/14 07:15:33;;;;;;;5.53;4.07;;;21.70;49.40;;;;;;4924258;29;20181;-79
2021/06/14 07:18:00;;;;;;;5.75;4.05;;;21.70;50.70;;;;;;4923753;29;20602;-79
2021/06/14 07:20:28;;;;;;;5.63;4.18;;;21.80;50.40;;;;;;4923029;29;20292;-79
2021/06/14 07:22:54;;;;;;;8.52;4.65;;;21.70;50.30;;;;;;4957582;29;20578;-79
2021/06/14 07:25:19;;;;;;;7.55;4.25;;;21.80;50.50;;;;;;4957457;28;20213;-79
2021/06/14 07:27:45;;;;;;;5.88;4.05;;;21.70;49.70;;;;;;4957589;28;20170;-80
2021/06/14 07:30:12;;;;;;;6.22;4.15;;;21.80;49.40;;;;;;4956632;29;20161;-79
2021/06/14 07:32:48;;;;;;;5.05;3.85;;;21.80;51.20;;;;;;4956482;29;20162;-79
2021/06/14 07:35:14;;;;;;;4.38;3.40;;;21.70;50.10;;;;;;4940823;29;20277;-79
2021/06/14 07:37:39;;;;;;;6.28;4.05;;;21.70;48.90;;;;;;4969341;28;20163;-80
2021/06/14 07:40:10;;;;;;;4.10;3.40;;;21.70;51.20;;;;;;4938665;29;20278;-80
2021/06/14 07:42:35;;;;;;;7.38;4.18;;;21.70;50.10;;;;;;4937432;29;20193;-79
2021/06/14 07:45:01;;;;;;;7.43;3.88;;;21.70;50.30;;;;;;4969031;28;20174;-79
2021/06/14 07:47:29;;;;;;;7.07;3.88;;;21.70;49.80;;;;;;4953006;29;20719;-79
2021/06/14 07:49:58;;;;;;;6.28;3.70;;;21.70;50.50;;;;;;4955188;29;20640;-79
2021/06/14 07:52:26;;;;;;;7.55;4.03;;;21.70;49.80;;;;;;4955521;29;20531;-79
2021/06/14 07:54:53;;;;;;;6.25;3.75;;;21.60;51.50;;;;;;4955218;29;20204;-79
2021/06/14 07:57:21;;;;;;;11.85;4.00;;;21.70;49.70;;;;;;4955577;29;20190;-79
2021/06/14 07:59:50;;;;;;;7.43;4.00;;;21.70;49.90;;;;;;4954943;29;20216;-79
2021/06/14 08:02:19;;;;;;;5.88;3.85;;;21.70;50.50;;;;;;4955130;29;20182;-79
2021/06/14 08:04:45;;;;;;;6.40;3.75;;;21.70;49.90;;;;;;4954981;29;20193;-79
2021/06/14 08:07:10;;;;;;;9.02;4.15;;;21.60;50.20;;;;;;4957075;29;20640;-79
2021/06/14 08:09:38;;;;;;;20.00;4.82;;;21.70;52.10;;;;;;4956642;29;20644;-80
2021/06/14 08:12:06;;;;;;;24.20;5.85;;;21.80;50.70;;;;;;4923174;29;20185;-81
2021/06/14 08:14:32;;;;;;;21.50;4.93;;;21.80;50.40;;;;;;4954675;29;20189;-80
2021/06/14 08:17:02;;;;;;;47.78;5.80;;;21.80;50.30;;;;;;4970527;28;20227;-79
2021/06/14 08:19:37;;;;;;;42.03;6.38;;;21.70;49.80;;;;;;4954846;29;20213;-80
2021/06/14 08:25:07;;;;;;;39.65;7.18;;;21.70;50.80;;;;;;4941450;29;20267;-79
2021/06/14 08:27:38;;;;;;;38.20;5.75;;;21.70;50.90;;;;;;4956322;28;20156;-79
2021/06/14 08:30:07;;;;;;;39.55;5.60;;;21.70;50.70;;;;;;4956374;28;20162;-80
2021/06/14 08:32:34;;;;;;;23.63;4.78;;;21.80;51.70;;;;;;4947965;29;20174;-79
2021/06/14 08:35:01;;;;;;;26.25;4.90;;;21.80;50.80;;;;;;4919708;29;20847;-80
2021/06/14 08:37:28;;;;;;;18.85;4.75;;;21.80;49.90;;;;;;4937132;29;20526;-80
2021/06/14 08:39:54;;;;;;;19.80;4.45;;;21.80;50.00;;;;;;4936962;29;20276;-80
2021/06/14 08:42:20;;;;;;;20.10;4.63;;;21.90;50.50;;;;;;4937125;29;20574;-80
2021/06/14 08:44:46;;;;;;;20.58;5.18;;;21.90;49.50;;;;;;4936928;29;20179;-79
2021/06/14 08:47:12;;;;;;;18.33;4.90;;;21.80;49.10;;;;;;4936069;29;20169;-79
2021/06/14 08:49:38;;;;;;;18.90;4.90;;;21.80;49.60;;;;;;4935731;29;20261;-79
2021/06/14 08:52:07;;;;;;;20.90;5.25;;;21.70;49.50;;;;;;4935487;29;20578;-79
2021/06/14 08:54:32;;;;;;;19.50;5.20;;;21.80;50.00;;;;;;4935506;29;20170;-79
2021/06/14 08:56:59;;;;;;;21.55;5.10;;;21.80;50.00;;;;;;4952686;29;20245;-79
2021/06/14 08:59:24;;;;;;;21.85;5.25;;;21.80;50.20;;;;;;4956910;28;20187;-80
2021/06/14 09:01:59;;;;;;;13.40;4.80;;;21.70;49.40;;;;;;4954280;29;20245;-80
2021/06/14 09:04:32;;;;;;;16.75;4.60;;;21.80;50.10;;;;;;4921520;29;20648;-80
2021/06/14 09:07:06;;;;;;;16.52;5.22;;;21.70;50.90;;;;;;4905427;29;20216;-79
2021/06/14 09:09:39;;;;;;;19.35;5.07;;;21.80;50.30;;;;;;4906273;29;20220;-79
2021/06/14 09:12:12;;;;;;;19.88;5.15;;;21.80;50.50;;;;;;4922189;29;20649;-80
2021/06/14 09:14:46;;;;;;;15.43;4.60;;;21.80;49.60;;;;;;4953645;28;20219;-80
2021/06/14 09:17:20;;;;;;;18.58;4.60;;;21.70;49.80;;;;;;4922133;29;20200;-79
2021/06/14 09:19:55;;;;;;;13.00;4.45;;;21.70;50.60;;;;;;4907274;29;20589;-80
2021/06/14 09:22:29;;;;;;;15.82;4.50;;;21.80;50.60;;;;;;4938899;29;20232;-79
2021/06/14 09:25:01;;;;;;;18.77;4.95;;;21.90;50.00;;;;;;4921684;29;20217;-81
2021/06/14 09:27:35;;;;;;;21.48;5.32;;;21.80;49.60;;;;;;4954686;28;20162;-80
2021/06/14 09:30:12;;;;;;;16.33;4.82;;;21.90;51.50;;;;;;4923156;29;20224;-79
2021/06/14 09:32:53;;;;;;;11.60;4.55;;;21.80;49.90;;;;;;4952000;29;20260;-81
2021/06/14 09:35:25;;;;;;;14.02;4.65;;;21.90;50.40;;;;;;4954589;29;20228;-80
2021/06/14 09:38:06;;;;;;;14.18;4.93;;;22.00;50.70;;;;;;4950392;28;20276;-80
2021/06/14 09:40:36;;;;;;;14.50;4.68;;;22.00;50.70;;;;;;4942391;29;20276;-80
2021/06/14 09:43:02;;;;;;;12.30;4.90;;;22.00;51.00;;;;;;4953206;29;20244;-80
2021/06/14 09:45:29;;;;;;;12.80;4.93;;;22.00;50.80;;;;;;4953663;29;20170;-80
2021/06/14 09:47:55;;;;;;;13.02;5.07;;;22.10;51.40;;;;;;4936705;29;20197;-80
2021/06/14 09:50:30;;;;;;;12.70;4.75;;;22.10;50.70;;;;;;4936263;29;20653;-80
2021/06/14 09:53:10;;;;;;;9.35;4.50;;;22.10;51.80;;;;;;4952411;29;20169;-80
2021/06/14 09:55:37;;;;;;;16.42;4.50;;;22.10;50.90;;;;;;4953817;29;20252;-79
2021/06/14 09:58:22;;;;;;;12.57;4.47;;;22.10;51.20;;;;;;4955033;29;20169;-79
2021/06/14 10:01:02;;;;;;;10.05;4.15;;;22.10;50.30;;;;;;4955255;29;20264;-79
2021/06/14 10:03:42;;;;;;;13.38;4.90;;;22.10;51.20;;;;;;4969219;28;20776;-79
2021/06/14 10:06:12;;;;;;;11.02;4.55;;;22.10;50.90;;;;;;4970877;28;20217;-79
2021/06/14 10:08:44;;;;;;;11.38;4.55;;;22.10;51.00;;;;;;4937303;29;20522;-79
2021/06/14 10:11:16;;;;;;;10.10;4.90;;;22.00;50.40;;;;;;4969795;28;20188;-79
2021/06/14 10:13:47;;;;;;;15.63;4.60;;;22.10;51.20;;;;;;4968893;28;20209;-79
2021/06/14 10:16:21;;;;;;;14.27;4.13;;;22.10;51.40;;;;;;4952983;29;20190;-79
2021/06/14 10:18:56;;;;;;;11.10;4.95;;;22.20;51.30;;;;;;4937995;29;20248;-79
2021/06/14 10:21:42;;;;;;;11.50;4.53;;;22.20;50.50;;;;;;4953223;29;20663;-79
2021/06/14 10:24:10;;;;;;;13.02;4.50;;;22.20;51.70;;;;;;4969518;28;20193;-78
2021/06/14 10:26:40;;;;;;;7.38;4.68;;;22.20;52.10;;;;;;4954185;29;20181;-79
2021/06/14 10:29:11;;;;;;;8.95;4.50;;;22.20;51.10;;;;;;4954003;29;20272;-79
2021/06/14 10:31:37;;;;;;;8.88;4.38;;;22.10;51.50;;;;;;4953521;29;20255;-79
2021/06/14 10:34:05;;;;;;;7.75;4.22;;;22.20;51.50;;;;;;4973552;28;20195;-78
2021/06/14 10:36:37;;;;;;;12.05;4.63;;;22.20;50.90;;;;;;4938190;29;20190;-79
2021/06/14 10:39:05;;;;;;;9.48;4.57;;;22.30;50.80;;;;;;4938061;29;20213;-79
2021/06/14 10:41:33;;;;;;;10.38;4.30;;;22.30;51.30;;;;;;4956813;29;20248;-79
2021/06/14 10:44:00;;;;;;;11.13;4.60;;;22.30;51.00;;;;;;4956787;29;20216;-79
2021/06/14 10:46:26;;;;;;;9.90;4.55;;;22.30;50.90;;;;;;4956796;29;20181;-79
2021/06/14 10:48:55;;;;;;;8.57;4.22;;;22.30;50.90;;;;;;4957635;29;20168;-79
2021/06/14 10:51:23;;;;;;;8.30;4.45;;;22.20;51.30;;;;;;4957527;29;20157;-79
2021/06/14 10:53:51;;;;;;;6.90;4.18;;;22.30;51.00;;;;;;4957152;29;20158;-79
2021/06/14 10:56:23;;;;;;;8.02;4.30;;;22.20;51.30;;;;;;4958044;29;20161;-79
2021/06/14 10:59:01;;;;;;;8.63;4.20;;;22.30;51.40;;;;;;4956111;29;20272;-79
2021/06/14 11:01:35;;;;;;;10.20;4.10;;;22.30;51.20;;;;;;4956563;29;20272;-80
2021/06/14 11:04:05;;;;;;;10.82;4.57;;;22.30;51.10;;;;;;4957300;28;20578;-80
2021/06/14 11:06:35;;;;;;;8.43;4.35;;;22.30;51.30;;;;;;4972180;28;20185;-80
2021/06/14 11:09:09;;;;;;;6.70;3.88;;;22.30;51.20;;;;;;4940310;29;20228;-80
2021/06/14 11:11:56;;;;;;;8.80;4.40;;;22.30;51.90;;;;;;4972889;28;20751;-80
2021/06/14 11:14:39;;;;;;;6.90;3.90;;;22.30;51.60;;;;;;4941693;29;20605;-80
2021/06/14 11:17:23;;;;;;;8.23;4.35;;;22.30;51.90;;;;;;4956088;29;20213;-80
2021/06/14 11:19:52;;;;;;;8.82;4.47;;;22.30;51.90;;;;;;4957625;29;20189;-80
2021/06/14 11:22:20;;;;;;;7.88;4.07;;;22.30;51.10;;;;;;4972969;28;20641;-80
2021/06/14 11:24:46;;;;;;;9.95;4.57;;;22.30;52.10;;;;;;4955668;29;20268;-80
2021/06/14 11:27:14;;;;;;;8.50;4.22;;;22.40;51.60;;;;;;4956985;29;20228;-80
2021/06/14 11:29:44;;;;;;;8.45;4.03;;;22.30;51.10;;;;;;4956689;29;20617;-80
2021/06/14 11:32:15;;;;;;;7.95;4.47;;;22.30;52.00;;;;;;4972773;28;20162;-80
2021/06/14 11:34:43;;;;;;;6.82;4.18;;;22.30;51.30;;;;;;4956348;29;20236;-80
2021/06/14 11:37:11;;;;;;;8.30;4.38;;;22.40;50.60;;;;;;4955508;29;20186;-80
2021/06/14 11:39:38;;;;;;;9.85;4.53;;;22.20;52.40;;;;;;4939423;29;20213;-80
2021/06/14 11:42:18;;;;;;;7.72;3.90;;;22.20;51.00;;;;;;4955544;29;20321;-80
2021/06/14 11:44:55;;;;;;;5.82;4.30;;;22.30;52.30;;;;;;4973075;28;20200;-80
2021/06/14 11:47:27;;;;;;;6.22;4.22;;;22.20;51.00;;;;;;4972661;28;20192;-80
2021/06/14 11:49:59;;;;;;;7.75;4.30;;;22.20;51.20;;;;;;4974553;28;20268;-81
2021/06/14 11:52:31;;;;;;;7.65;4.65;;;22.10;51.00;;;;;;4956991;29;20196;-80
2021/06/14 11:54:58;;;;;;;11.23;4.63;;;22.10;51.20;;;;;;4958451;29;20185;-80
2021/06/14 11:57:28;;;;;;;6.10;4.20;;;22.10;51.80;;;;;;4940267;29;20166;-80
2021/06/14 11:59:54;;;;;;;7.13;4.20;;;22.20;51.60;;;;;;4957186;29;20694;-79
2021/06/14 12:02:22;;;;;;;7.97;4.00;;;22.20;51.50;;;;;;4972927;28;20241;-80
2021/06/14 12:04:57;;;;;;;6.63;4.13;;;22.20;51.60;;;;;;4971291;28;20232;-80
2021/06/14 12:07:33;;;;;;;6.70;3.65;;;22.40;51.60;;;;;;4955295;29;20196;-80
2021/06/14 12:10:02;;;;;;;4.85;3.65;;;22.40;51.80;;;;;;4958295;29;20161;-80
2021/06/14 12:12:28;;;;;;;5.78;4.15;;;22.40;51.10;;;;;;4955982;29;20176;-80
2021/06/14 12:14:54;;;;;;;7.32;3.88;;;22.40;51.30;;;;;;4958963;29;20237;-80
2021/06/14 12:17:24;;;;;;;6.72;4.10;;;22.40;51.70;;;;;;4959939;29;20170;-80
2021/06/14 12:19:50;;;;;;;8.63;4.20;;;22.50;51.30;;;;;;4959611;29;20181;-81
2021/06/14 12:22:21;;;;;;;7.40;4.13;;;22.30;51.60;;;;;;4958968;29;20525;-81
2021/06/14 12:24:48;;;;;;;8.05;4.35;;;22.40;52.30;;;;;;4908267;29;20216;-80
2021/06/14 12:27:14;;;;;;;13.90;5.00;;;22.40;52.20;;;;;;4956746;29;20153;-80
2021/06/14 12:29:40;;;;;;;10.55;4.47;;;22.40;52.50;;;;;;4956984;29;20162;-79
2021/06/14 12:32:09;;;;;;;7.95;4.47;;;22.40;52.70;;;;;;4957848;29;20165;-79
2021/06/14 12:34:37;;;;;;;7.80;4.45;;;22.40;52.30;;;;;;4956609;29;20618;-79
2021/06/14 12:37:08;;;;;;;10.00;4.40;;;22.40;52.60;;;;;;4955383;29;20189;-79
2021/06/14 12:39:34;;;;;;;8.75;3.95;;;22.40;52.20;;;;;;4956481;29;20198;-80
2021/06/14 12:42:00;;;;;;;7.55;4.22;;;22.40;52.30;;;;;;4956691;29;20270;-79
2021/06/14 12:44:26;;;;;;;8.00;4.05;;;22.40;52.30;;;;;;4939121;29;20173;-79
2021/06/14 12:46:51;;;;;;;10.38;4.70;;;22.40;52.70;;;;;;4955080;29;20162;-80
2021/06/14 12:49:28;;;;;;;9.13;4.38;;;22.50;52.50;;;;;;4956422;29;20212;-79
2021/06/14 12:51:53;;;;;;;7.22;4.07;;;22.40;52.30;;;;;;4954889;29;20525;-80
2021/06/14 12:54:19;;;;;;;7.55;4.07;;;22.50;52.60;;;;;;4955091;29;20174;-80
2021/06/14 12:56:54;;;;;;;8.20;4.50;;;22.40;52.40;;;;;;4956105;29;20166;-80
2021/06/14 12:59:20;;;;;;;8.30;4.20;;;22.40;52.20;;;;;;4955166;29;20196;-80
2021/06/14 13:01:47;;;;;;;7.13;3.97;;;22.40;52.10;;;;;;4954545;28;20534;-80